sensor_id;sensor_type;location;lat;lon;timestamp;temperature;humidity
57282;DHT22;43129;52.628;10.098;2024-01-11T00:00:49;-6.60;99.90
57282;DHT22;43129;52.628;10.098;2024-01-11T00:03:15;-6.60;99.90
57282;DHT22;43129;52.628;10.098;2024-01-11T00:05:41;-6.60;99.90
57282;DHT22;43129;52.628;10.098;2024-01-11T00:08:07;-6.70;99.90
57282;DHT22;43129;52.628;10.098;2024-01-11T00:10:33;-6.80;99.90
57282;DHT22;43129;52.628;10.098;2024-01-11T00:12:58;-6.90;99.90
57282;DHT22;43129;52.628;10.098;2024-01-11T00:15:26;-6.90;99.90
57282;DHT22;43129;52.628;10.098;2024-01-11T00:17:54;-6.80;99.90
57282;DHT22;43129;52.628;10.098;2024-01-11T00:20:22;-6.70;99.90
57282;DHT22;43129;52.628;10.098;2024-01-11T00:22:48;-6.80;99.90
57282;DHT22;43129;52.628;10.098;2024-01-11T00:25:14;-7.00;99.90
57282;DHT22;43129;52.628;10.098;2024-01-11T00:27:44;-6.90;99.90
57282;DHT22;43129;52.628;10.098;2024-01-11T00:30:12;-6.80;99.90
57282;DHT22;43129;52.628;10.098;2024-01-11T00:32:40;-6.90;99.90
57282;DHT22;43129;52.628;10.098;2024-01-11T00:35:07;-7.00;99.90
57282;DHT22;43129;52.628;10.098;2024-01-11T00:37:36;-6.90;99.90
57282;DHT22;43129;52.628;10.098;2024-01-11T00:40:01;-6.70;99.90
57282;DHT22;43129;52.628;10.098;2024-01-11T00:42:29;-6.70;99.90
57282;DHT22;43129;52.628;10.098;2024-01-11T00:44:55;-6.90;99.90
57282;DHT22;43129;52.628;10.098;2024-01-11T00:47:23;-7.00;99.90
57282;DHT22;43129;52.628;10.098;2024-01-11T00:49:52;-7.10;99.90
57282;DHT22;43129;52.628;10.098;2024-01-11T00:52:18;-7.10;99.90
57282;DHT22;43129;52.628;10.098;2024-01-11T00:54:43;-7.00;99.90
57282;DHT22;43129;52.628;10.098;2024-01-11T00:57:09;-7.00;99.90
57282;DHT22;43129;52.628;10.098;2024-01-11T00:59:34;-7.10;99.90
57282;DHT22;43129;52.628;10.098;2024-01-11T01:02:00;-7.10;99.90
57282;DHT22;43129;52.628;10.098;2024-01-11T01:04:26;-7.20;99.90
57282;DHT22;43129;52.628;10.098;2024-01-11T01:06:54;-7.30;99.90
57282;DHT22;43129;52.628;10.098;2024-01-11T01:09:19;-7.30;99.90
57282;DHT22;43129;52.628;10.098;2024-01-11T01:11:47;-7.30;99.90
57282;DHT22;43129;52.628;10.098;2024-01-11T01:14:13;-7.20;99.90
57282;DHT22;43129;52.628;10.098;2024-01-11T01:16:43;-7.20;99.90
57282;DHT22;43129;52.628;10.098;2024-01-11T01:19:11;-7.10;99.90
57282;DHT22;43129;52.628;10.098;2024-01-11T01:21:37;-7.20;99.90
57282;DHT22;43129;52.628;10.098;2024-01-11T01:24:05;-7.30;99.90
57282;DHT22;43129;52.628;10.098;2024-01-11T01:26:31;-7.30;99.90
57282;DHT22;43129;52.628;10.098;2024-01-11T01:28:56;-7.30;99.90
57282;DHT22;43129;52.628;10.098;2024-01-11T01:31:22;-7.30;99.90
57282;DHT22;43129;52.628;10.098;2024-01-11T01:33:47;-7.30;99.90
57282;DHT22;43129;52.628;10.098;2024-01-11T01:36:13;-7.20;99.90
57282;DHT22;43129;52.628;10.098;2024-01-11T01:38:39;-7.20;99.90
57282;DHT22;43129;52.628;10.098;2024-01-11T01:41:07;-7.30;99.90
57282;DHT22;43129;52.628;10.098;2024-01-11T01:43:35;-7.40;99.90
57282;DHT22;43129;52.628;10.098;2024-01-11T01:46:05;-7.50;99.90
57282;DHT22;43129;52.628;10.098;2024-01-11T01:48:32;-7.60;99.90
57282;DHT22;43129;52.628;10.098;2024-01-11T01:50:58;-7.60;99.90
57282;DHT22;43129;52.628;10.098;2024-01-11T01:53:26;-7.50;99.90
57282;DHT22;43129;52.628;10.098;2024-01-11T01:55:53;-7.40;99.90
57282;DHT22;43129;52.628;10.098;2024-01-11T01:58:20;-7.40;99.90
57282;DHT22;43129;52.628;10.098;2024-01-11T02:00:47;-7.50;99.90
57282;DHT22;43129;52.628;10.098;2024-01-11T02:03:14;-7.60;99.90
57282;DHT22;43129;52.628;10.098;2024-01-11T02:05:42;-7.80;99.90
57282;DHT22;43129;52.628;10.098;2024-01-11T02:08:08;-7.80;99.90
57282;DHT22;43129;52.628;10.098;2024-01-11T02:10:37;-7.80;99.90
57282;DHT22;43129;52.628;10.098;2024-01-11T02:13:05;-8.00;99.90
57282;DHT22;43129;52.628;10.098;2024-01-11T02:15:31;-7.80;99.90
57282;DHT22;43129;52.628;10.098;2024-01-11T02:17:59;-7.80;99.90
57282;DHT22;43129;52.628;10.098;2024-01-11T02:20:25;-7.70;99.90
57282;DHT22;43129;52.628;10.098;2024-01-11T02:22:54;-7.70;99.90
57282;DHT22;43129;52.628;10.098;2024-01-11T02:25:21;-7.80;99.90
57282;DHT22;43129;52.628;10.098;2024-01-11T02:27:50;-7.70;99.90
57282;DHT22;43129;52.628;10.098;2024-01-11T02:30:16;-7.70;99.90
57282;DHT22;43129;52.628;10.098;2024-01-11T02:32:50;-7.60;99.90
57282;DHT22;43129;52.628;10.098;2024-01-11T02:35:18;-7.60;99.90
57282;DHT22;43129;52.628;10.098;2024-01-11T02:37:45;-7.70;99.90
57282;DHT22;43129;52.628;10.098;2024-01-11T02:40:13;-7.60;99.90
57282;DHT22;43129;52.628;10.098;2024-01-11T02:42:43;-7.60;99.90
57282;DHT22;43129;52.628;10.098;2024-01-11T02:45:11;-7.60;99.90
57282;DHT22;43129;52.628;10.098;2024-01-11T02:47:38;-7.70;99.90
57282;DHT22;43129;52.628;10.098;2024-01-11T02:50:04;-7.60;99.90
57282;DHT22;43129;52.628;10.098;2024-01-11T02:52:30;-7.60;99.90
57282;DHT22;43129;52.628;10.098;2024-01-11T02:54:57;-7.50;99.90
57282;DHT22;43129;52.628;10.098;2024-01-11T02:57:25;-7.50;99.90
57282;DHT22;43129;52.628;10.098;2024-01-11T02:59:51;-7.60;99.90
57282;DHT22;43129;52.628;10.098;2024-01-11T03:02:17;-7.50;99.90
57282;DHT22;43129;52.628;10.098;2024-01-11T03:04:43;-7.50;99.90
57282;DHT22;43129;52.628;10.098;2024-01-11T03:07:11;-7.50;99.90
57282;DHT22;43129;52.628;10.098;2024-01-11T03:09:39;-7.60;99.90
57282;DHT22;43129;52.628;10.098;2024-01-11T03:12:09;-7.60;99.90
57282;DHT22;43129;52.628;10.098;2024-01-11T03:14:34;-7.50;99.90
57282;DHT22;43129;52.628;10.098;2024-01-11T03:17:00;-7.50;99.90
57282;DHT22;43129;52.628;10.098;2024-01-11T03:19:26;-7.60;99.90
57282;DHT22;43129;52.628;10.098;2024-01-11T03:21:55;-7.70;99.90
57282;DHT22;43129;52.628;10.098;2024-01-11T03:24:21;-7.70;99.90
57282;DHT22;43129;52.628;10.098;2024-01-11T03:26:48;-7.60;99.90
57282;DHT22;43129;52.628;10.098;2024-01-11T03:29:16;-7.60;99.90
57282;DHT22;43129;52.628;10.098;2024-01-11T03:31:42;-7.70;99.90
57282;DHT22;43129;52.628;10.098;2024-01-11T03:34:10;-7.70;99.90
57282;DHT22;43129;52.628;10.098;2024-01-11T03:36:40;-7.70;99.90
57282;DHT22;43129;52.628;10.098;2024-01-11T03:39:06;-7.80;99.90
57282;DHT22;43129;52.628;10.098;2024-01-11T03:41:34;-7.90;99.90
57282;DHT22;43129;52.628;10.098;2024-01-11T03:44:00;-7.90;99.90
57282;DHT22;43129;52.628;10.098;2024-01-11T03:46:26;-7.80;99.90
57282;DHT22;43129;52.628;10.098;2024-01-11T03:48:51;-8.00;99.90
57282;DHT22;43129;52.628;10.098;2024-01-11T03:51:17;-8.00;99.90
57282;DHT22;43129;52.628;10.098;2024-01-11T03:53:45;-7.80;99.90
57282;DHT22;43129;52.628;10.098;2024-01-11T03:56:10;-7.80;99.90
57282;DHT22;43129;52.628;10.098;2024-01-11T03:58:38;-7.70;99.90
57282;DHT22;43129;52.628;10.098;2024-01-11T04:01:07;-7.70;99.90
57282;DHT22;43129;52.628;10.098;2024-01-11T04:03:37;-7.80;99.90
57282;DHT22;43129;52.628;10.098;2024-01-11T04:06:03;-7.90;99.90
57282;DHT22;43129;52.628;10.098;2024-01-11T04:08:29;-7.90;99.90
57282;DHT22;43129;52.628;10.098;2024-01-11T04:10:55;-8.00;99.90
57282;DHT22;43129;52.628;10.098;2024-01-11T04:13:22;-8.00;99.90
57282;DHT22;43129;52.628;10.098;2024-01-11T04:15:53;-7.90;99.90
57282;DHT22;43129;52.628;10.098;2024-01-11T04:18:24;-7.90;99.90
57282;DHT22;43129;52.628;10.098;2024-01-11T04:20:54;-7.90;99.90
57282;DHT22;43129;52.628;10.098;2024-01-11T04:23:20;-7.80;99.90
57282;DHT22;43129;52.628;10.098;2024-01-11T04:25:48;-7.80;99.90
57282;DHT22;43129;52.628;10.098;2024-01-11T04:28:19;-7.70;99.90
57282;DHT22;43129;52.628;10.098;2024-01-11T04:30:44;-7.80;99.90
57282;DHT22;43129;52.628;10.098;2024-01-11T04:33:10;-7.80;99.90
57282;DHT22;43129;52.628;10.098;2024-01-11T04:35:39;-7.80;99.90
57282;DHT22;43129;52.628;10.098;2024-01-11T04:38:04;-7.70;99.90
57282;DHT22;43129;52.628;10.098;2024-01-11T04:40:30;-7.70;99.90
57282;DHT22;43129;52.628;10.098;2024-01-11T04:42:58;-7.90;99.90
57282;DHT22;43129;52.628;10.098;2024-01-11T04:45:24;-7.70;99.90
57282;DHT22;43129;52.628;10.098;2024-01-11T04:47:52;-7.70;99.90
57282;DHT22;43129;52.628;10.098;2024-01-11T04:50:20;-7.70;99.90
57282;DHT22;43129;52.628;10.098;2024-01-11T04:52:45;-7.70;99.90
57282;DHT22;43129;52.628;10.098;2024-01-11T04:55:11;-7.70;99.90
57282;DHT22;43129;52.628;10.098;2024-01-11T04:57:37;-7.80;99.90
57282;DHT22;43129;52.628;10.098;2024-01-11T05:00:05;-7.90;99.90
57282;DHT22;43129;52.628;10.098;2024-01-11T05:02:36;-8.00;99.90
57282;DHT22;43129;52.628;10.098;2024-01-11T05:05:02;-8.00;99.90
57282;DHT22;43129;52.628;10.098;2024-01-11T05:07:27;-8.00;99.90
57282;DHT22;43129;52.628;10.098;2024-01-11T05:09:56;-8.00;99.90
57282;DHT22;43129;52.628;10.098;2024-01-11T05:12:21;-8.00;99.90
57282;DHT22;43129;52.628;10.098;2024-01-11T05:14:47;-7.90;99.90
57282;DHT22;43129;52.628;10.098;2024-01-11T05:17:15;-8.00;99.90
57282;DHT22;43129;52.628;10.098;2024-01-11T05:19:40;-8.00;99.90
57282;DHT22;43129;52.628;10.098;2024-01-11T05:22:06;-7.90;99.90
57282;DHT22;43129;52.628;10.098;2024-01-11T05:24:31;-7.90;99.90
57282;DHT22;43129;52.628;10.098;2024-01-11T05:26:57;-7.90;99.90
57282;DHT22;43129;52.628;10.098;2024-01-11T05:29:25;-7.90;99.90
57282;DHT22;43129;52.628;10.098;2024-01-11T05:31:51;-8.00;99.90
57282;DHT22;43129;52.628;10.098;2024-01-11T05:34:16;-7.90;99.90
57282;DHT22;43129;52.628;10.098;2024-01-11T05:36:42;-7.90;99.90
57282;DHT22;43129;52.628;10.098;2024-01-11T05:39:08;-7.80;99.90
57282;DHT22;43129;52.628;10.098;2024-01-11T05:41:33;-7.80;99.90
57282;DHT22;43129;52.628;10.098;2024-01-11T05:43:59;-7.90;99.90
57282;DHT22;43129;52.628;10.098;2024-01-11T05:46:24;-7.90;99.90
57282;DHT22;43129;52.628;10.098;2024-01-11T05:48:50;-7.80;99.90
57282;DHT22;43129;52.628;10.098;2024-01-11T05:51:20;-7.70;99.90
57282;DHT22;43129;52.628;10.098;2024-01-11T05:53:45;-7.80;99.90
57282;DHT22;43129;52.628;10.098;2024-01-11T05:56:21;-7.80;99.90
57282;DHT22;43129;52.628;10.098;2024-01-11T05:58:47;-7.80;99.90
57282;DHT22;43129;52.628;10.098;2024-01-11T06:01:15;-7.70;99.90
57282;DHT22;43129;52.628;10.098;2024-01-11T06:03:41;-7.70;99.90
57282;DHT22;43129;52.628;10.098;2024-01-11T06:06:09;-7.70;99.90
57282;DHT22;43129;52.628;10.098;2024-01-11T06:08:34;-7.80;99.90
57282;DHT22;43129;52.628;10.098;2024-01-11T06:11:00;-7.80;99.90
57282;DHT22;43129;52.628;10.098;2024-01-11T06:13:29;-7.80;99.90
57282;DHT22;43129;52.628;10.098;2024-01-11T06:15:57;-7.80;99.90
57282;DHT22;43129;52.628;10.098;2024-01-11T06:18:25;-7.70;99.90
57282;DHT22;43129;52.628;10.098;2024-01-11T06:20:53;-7.70;99.90
57282;DHT22;43129;52.628;10.098;2024-01-11T06:23:21;-7.70;99.90
57282;DHT22;43129;52.628;10.098;2024-01-11T06:25:46;-7.60;99.90
57282;DHT22;43129;52.628;10.098;2024-01-11T06:28:12;-7.60;99.90
57282;DHT22;43129;52.628;10.098;2024-01-11T06:30:40;-7.70;99.90
57282;DHT22;43129;52.628;10.098;2024-01-11T06:33:06;-7.70;99.90
57282;DHT22;43129;52.628;10.098;2024-01-11T06:35:32;-7.70;99.90
57282;DHT22;43129;52.628;10.098;2024-01-11T06:38:00;-7.50;99.90
57282;DHT22;43129;52.628;10.098;2024-01-11T06:40:30;-7.60;99.90
57282;DHT22;43129;52.628;10.098;2024-01-11T06:42:56;-7.60;99.90
57282;DHT22;43129;52.628;10.098;2024-01-11T06:45:21;-7.60;99.90
57282;DHT22;43129;52.628;10.098;2024-01-11T06:47:50;-7.50;99.90
57282;DHT22;43129;52.628;10.098;2024-01-11T06:50:16;-7.50;99.90
57282;DHT22;43129;52.628;10.098;2024-01-11T06:52:42;-7.60;99.90
57282;DHT22;43129;52.628;10.098;2024-01-11T06:55:10;-7.60;99.90
57282;DHT22;43129;52.628;10.098;2024-01-11T06:57:36;-7.70;99.90
57282;DHT22;43129;52.628;10.098;2024-01-11T07:00:02;-7.90;99.90
57282;DHT22;43129;52.628;10.098;2024-01-11T07:02:32;-7.90;99.90
57282;DHT22;43129;52.628;10.098;2024-01-11T07:05:00;-7.90;99.90
57282;DHT22;43129;52.628;10.098;2024-01-11T07:07:26;-8.00;99.90
57282;DHT22;43129;52.628;10.098;2024-01-11T07:09:52;-7.90;99.90
57282;DHT22;43129;52.628;10.098;2024-01-11T07:12:21;-7.90;99.90
57282;DHT22;43129;52.628;10.098;2024-01-11T07:14:48;-7.90;99.90
57282;DHT22;43129;52.628;10.098;2024-01-11T07:17:17;-8.00;99.90
57282;DHT22;43129;52.628;10.098;2024-01-11T07:19:43;-7.90;99.90
57282;DHT22;43129;52.628;10.098;2024-01-11T07:22:09;-7.80;99.90
57282;DHT22;43129;52.628;10.098;2024-01-11T07:24:34;-7.70;99.90
57282;DHT22;43129;52.628;10.098;2024-01-11T07:27:06;-7.60;99.90
57282;DHT22;43129;52.628;10.098;2024-01-11T07:29:33;-7.60;99.90
57282;DHT22;43129;52.628;10.098;2024-01-11T07:31:59;-7.60;99.90
57282;DHT22;43129;52.628;10.098;2024-01-11T07:34:26;-7.70;99.90
57282;DHT22;43129;52.628;10.098;2024-01-11T07:36:52;-7.80;99.90
57282;DHT22;43129;52.628;10.098;2024-01-11T07:39:20;-7.80;99.90
57282;DHT22;43129;52.628;10.098;2024-01-11T07:41:48;-7.80;99.90
57282;DHT22;43129;52.628;10.098;2024-01-11T07:44:13;-7.80;99.90
57282;DHT22;43129;52.628;10.098;2024-01-11T07:46:39;-7.60;99.90
57282;DHT22;43129;52.628;10.098;2024-01-11T07:49:06;-7.50;99.90
57282;DHT22;43129;52.628;10.098;2024-01-11T07:51:33;-7.30;99.90
57282;DHT22;43129;52.628;10.098;2024-01-11T07:54:00;-7.20;99.90
57282;DHT22;43129;52.628;10.098;2024-01-11T07:56:26;-7.30;99.90
57282;DHT22;43129;52.628;10.098;2024-01-11T07:58:54;-7.20;99.90
57282;DHT22;43129;52.628;10.098;2024-01-11T08:01:22;-7.20;99.90
57282;DHT22;43129;52.628;10.098;2024-01-11T08:03:48;-7.20;99.90
57282;DHT22;43129;52.628;10.098;2024-01-11T08:06:13;-7.10;99.90
57282;DHT22;43129;52.628;10.098;2024-01-11T08:08:39;-7.10;99.90
57282;DHT22;43129;52.628;10.098;2024-01-11T08:11:07;-7.00;99.90
57282;DHT22;43129;52.628;10.098;2024-01-11T08:13:35;-7.00;99.90
57282;DHT22;43129;52.628;10.098;2024-01-11T08:16:03;-7.00;99.90
57282;DHT22;43129;52.628;10.098;2024-01-11T08:18:34;-6.90;99.90
57282;DHT22;43129;52.628;10.098;2024-01-11T08:21:00;-7.00;99.90
57282;DHT22;43129;52.628;10.098;2024-01-11T08:23:28;-7.00;99.90
57282;DHT22;43129;52.628;10.098;2024-01-11T08:25:53;-7.00;99.90
57282;DHT22;43129;52.628;10.098;2024-01-11T08:28:19;-7.00;99.90
57282;DHT22;43129;52.628;10.098;2024-01-11T08:30:45;-6.80;99.90
57282;DHT22;43129;52.628;10.098;2024-01-11T08:33:11;-6.90;99.90
57282;DHT22;43129;52.628;10.098;2024-01-11T08:35:39;-7.00;99.90
57282;DHT22;43129;52.628;10.098;2024-01-11T08:38:06;-6.90;99.90
57282;DHT22;43129;52.628;10.098;2024-01-11T08:40:31;-6.90;99.90
57282;DHT22;43129;52.628;10.098;2024-01-11T08:42:59;-6.90;99.90
57282;DHT22;43129;52.628;10.098;2024-01-11T08:45:25;-6.90;99.90
57282;DHT22;43129;52.628;10.098;2024-01-11T08:47:50;-6.90;99.90
57282;DHT22;43129;52.628;10.098;2024-01-11T08:50:19;-6.80;99.90
57282;DHT22;43129;52.628;10.098;2024-01-11T08:52:47;-6.70;99.90
57282;DHT22;43129;52.628;10.098;2024-01-11T08:55:12;-6.60;99.90
57282;DHT22;43129;52.628;10.098;2024-01-11T08:57:40;-6.60;99.90
57282;DHT22;43129;52.628;10.098;2024-01-11T09:00:06;-6.60;99.90
57282;DHT22;43129;52.628;10.098;2024-01-11T09:02:32;-6.60;99.90
57282;DHT22;43129;52.628;10.098;2024-01-11T09:04:58;-6.50;99.90
57282;DHT22;43129;52.628;10.098;2024-01-11T09:07:25;-6.30;99.90
57282;DHT22;43129;52.628;10.098;2024-01-11T09:09:53;-6.30;99.90
57282;DHT22;43129;52.628;10.098;2024-01-11T09:12:22;-6.30;99.90
57282;DHT22;43129;52.628;10.098;2024-01-11T09:14:50;-6.30;99.90
57282;DHT22;43129;52.628;10.098;2024-01-11T09:17:16;-6.30;99.90
57282;DHT22;43129;52.628;10.098;2024-01-11T09:19:41;-6.30;99.90
57282;DHT22;43129;52.628;10.098;2024-01-11T09:22:07;-6.20;99.90
57282;DHT22;43129;52.628;10.098;2024-01-11T09:24:35;-6.10;99.90
57282;DHT22;43129;52.628;10.098;2024-01-11T09:27:01;-6.10;99.90
57282;DHT22;43129;52.628;10.098;2024-01-11T09:29:29;-6.20;99.90
57282;DHT22;43129;52.628;10.098;2024-01-11T09:31:55;-6.10;99.90
57282;DHT22;43129;52.628;10.098;2024-01-11T09:34:20;-6.10;99.90
57282;DHT22;43129;52.628;10.098;2024-01-11T09:36:46;-6.00;99.90
57282;DHT22;43129;52.628;10.098;2024-01-11T09:39:14;-5.80;99.90
57282;DHT22;43129;52.628;10.098;2024-01-11T09:41:42;-5.90;99.90
57282;DHT22;43129;52.628;10.098;2024-01-11T09:44:13;-5.80;99.90
57282;DHT22;43129;52.628;10.098;2024-01-11T09:46:39;-5.60;99.90
57282;DHT22;43129;52.628;10.098;2024-01-11T09:49:08;-5.60;99.90
57282;DHT22;43129;52.628;10.098;2024-01-11T09:51:40;-5.60;99.90
57282;DHT22;43129;52.628;10.098;2024-01-11T09:54:10;-5.60;99.90
57282;DHT22;43129;52.628;10.098;2024-01-11T09:56:37;-5.50;99.90
57282;DHT22;43129;52.628;10.098;2024-01-11T09:59:06;-5.60;99.90
57282;DHT22;43129;52.628;10.098;2024-01-11T10:01:37;-5.50;99.90
57282;DHT22;43129;52.628;10.098;2024-01-11T10:04:03;-5.40;99.90
57282;DHT22;43129;52.628;10.098;2024-01-11T10:06:34;-5.50;99.90
57282;DHT22;43129;52.628;10.098;2024-01-11T10:09:05;-5.50;99.90
57282;DHT22;43129;52.628;10.098;2024-01-11T10:11:31;-5.50;99.90
57282;DHT22;43129;52.628;10.098;2024-01-11T10:13:57;-5.50;99.90
57282;DHT22;43129;52.628;10.098;2024-01-11T10:16:24;-5.60;99.90
57282;DHT22;43129;52.628;10.098;2024-01-11T10:18:53;-5.50;99.90
57282;DHT22;43129;52.628;10.098;2024-01-11T10:21:23;-5.40;99.90
57282;DHT22;43129;52.628;10.098;2024-01-11T10:23:51;-5.20;99.90
57282;DHT22;43129;52.628;10.098;2024-01-11T10:26:17;-5.20;99.90
57282;DHT22;43129;52.628;10.098;2024-01-11T10:28:47;-5.10;99.90
57282;DHT22;43129;52.628;10.098;2024-01-11T10:31:13;-5.10;99.90
57282;DHT22;43129;52.628;10.098;2024-01-11T10:33:45;-5.00;99.90
57282;DHT22;43129;52.628;10.098;2024-01-11T10:36:11;-5.00;99.90
57282;DHT22;43129;52.628;10.098;2024-01-11T10:38:39;-5.00;99.90
57282;DHT22;43129;52.628;10.098;2024-01-11T10:41:06;-5.10;99.90
57282;DHT22;43129;52.628;10.098;2024-01-11T10:43:36;-4.90;99.90
57282;DHT22;43129;52.628;10.098;2024-01-11T10:46:04;-4.90;99.90
57282;DHT22;43129;52.628;10.098;2024-01-11T10:48:42;-4.90;99.90
57282;DHT22;43129;52.628;10.098;2024-01-11T10:51:12;-4.90;99.90
57282;DHT22;43129;52.628;10.098;2024-01-11T10:53:47;-4.70;99.90
57282;DHT22;43129;52.628;10.098;2024-01-11T10:56:14;-4.80;99.90
57282;DHT22;43129;52.628;10.098;2024-01-11T10:58:44;-4.70;99.90
57282;DHT22;43129;52.628;10.098;2024-01-11T11:01:13;-4.60;99.90
57282;DHT22;43129;52.628;10.098;2024-01-11T11:03:39;-4.50;99.90
57282;DHT22;43129;52.628;10.098;2024-01-11T11:06:09;-4.40;99.90
57282;DHT22;43129;52.628;10.098;2024-01-11T11:08:38;-4.40;99.90
57282;DHT22;43129;52.628;10.098;2024-01-11T11:11:08;-4.30;99.90
57282;DHT22;43129;52.628;10.098;2024-01-11T11:13:36;-4.30;99.90
57282;DHT22;43129;52.628;10.098;2024-01-11T11:16:06;-4.40;99.90
57282;DHT22;43129;52.628;10.098;2024-01-11T11:18:32;-4.40;99.90
57282;DHT22;43129;52.628;10.098;2024-01-11T11:21:09;-4.30;99.90
57282;DHT22;43129;52.628;10.098;2024-01-11T11:23:36;-4.20;99.90
57282;DHT22;43129;52.628;10.098;2024-01-11T11:26:02;-4.10;99.90
57282;DHT22;43129;52.628;10.098;2024-01-11T11:28:32;-4.00;99.90
57282;DHT22;43129;52.628;10.098;2024-01-11T11:31:00;-4.10;99.90
57282;DHT22;43129;52.628;10.098;2024-01-11T11:33:29;-4.10;99.90
57282;DHT22;43129;52.628;10.098;2024-01-11T11:35:59;-4.00;99.90
57282;DHT22;43129;52.628;10.098;2024-01-11T11:38:29;-3.90;99.90
57282;DHT22;43129;52.628;10.098;2024-01-11T11:40:57;-4.00;99.90
57282;DHT22;43129;52.628;10.098;2024-01-11T11:43:27;-4.00;99.90
57282;DHT22;43129;52.628;10.098;2024-01-11T11:45:53;-4.00;99.90
57282;DHT22;43129;52.628;10.098;2024-01-11T11:53:37;-3.80;99.90
57282;DHT22;43129;52.628;10.098;2024-01-11T11:56:03;-3.70;99.90
57282;DHT22;43129;52.628;10.098;2024-01-11T11:58:33;-3.70;99.90
57282;DHT22;43129;52.628;10.098;2024-01-11T12:01:00;-3.60;99.90
57282;DHT22;43129;52.628;10.098;2024-01-11T12:05:56;-3.50;99.90
57282;DHT22;43129;52.628;10.098;2024-01-11T12:08:24;-3.50;99.90
57282;DHT22;43129;52.628;10.098;2024-01-11T12:10:51;-3.30;99.90
57282;DHT22;43129;52.628;10.098;2024-01-11T12:13:18;-3.40;99.90
57282;DHT22;43129;52.628;10.098;2024-01-11T12:15:46;-3.40;99.90
57282;DHT22;43129;52.628;10.098;2024-01-11T12:18:12;-3.40;99.90
57282;DHT22;43129;52.628;10.098;2024-01-11T12:20:37;-3.40;99.90
57282;DHT22;43129;52.628;10.098;2024-01-11T12:23:03;-3.30;99.90
57282;DHT22;43129;52.628;10.098;2024-01-11T12:25:30;-3.30;99.90
57282;DHT22;43129;52.628;10.098;2024-01-11T12:27:57;-3.30;99.90
57282;DHT22;43129;52.628;10.098;2024-01-11T12:30:26;-3.30;99.90
57282;DHT22;43129;52.628;10.098;2024-01-11T12:32:53;-3.40;99.90
57282;DHT22;43129;52.628;10.098;2024-01-11T12:35:20;-3.30;99.90
57282;DHT22;43129;52.628;10.098;2024-01-11T12:37:55;-3.30;99.90
57282;DHT22;43129;52.628;10.098;2024-01-11T12:40:23;-3.20;99.90
57282;DHT22;43129;52.628;10.098;2024-01-11T12:42:49;-3.10;99.90
57282;DHT22;43129;52.628;10.098;2024-01-11T12:45:16;-3.10;99.90
57282;DHT22;43129;52.628;10.098;2024-01-11T12:47:46;-3.10;99.90
57282;DHT22;43129;52.628;10.098;2024-01-11T12:50:12;-3.00;99.90
57282;DHT22;43129;52.628;10.098;2024-01-11T12:52:40;-3.00;99.90
57282;DHT22;43129;52.628;10.098;2024-01-11T12:55:18;-2.90;99.90
57282;DHT22;43129;52.628;10.098;2024-01-11T12:57:46;-2.90;99.90
57282;DHT22;43129;52.628;10.098;2024-01-11T13:00:17;-2.90;99.90
57282;DHT22;43129;52.628;10.098;2024-01-11T13:02:43;-2.80;99.90
57282;DHT22;43129;52.628;10.098;2024-01-11T13:05:11;-2.80;99.90
57282;DHT22;43129;52.628;10.098;2024-01-11T13:07:37;-2.80;99.90
57282;DHT22;43129;52.628;10.098;2024-01-11T13:10:05;-2.70;99.90
57282;DHT22;43129;52.628;10.098;2024-01-11T13:12:33;-2.70;99.90
57282;DHT22;43129;52.628;10.098;2024-01-11T13:14:59;-2.70;99.90
57282;DHT22;43129;52.628;10.098;2024-01-11T13:17:24;-2.70;99.90
57282;DHT22;43129;52.628;10.098;2024-01-11T13:19:53;-2.60;99.90
57282;DHT22;43129;52.628;10.098;2024-01-11T13:22:18;-2.60;99.90
57282;DHT22;43129;52.628;10.098;2024-01-11T13:24:44;-2.60;99.90
57282;DHT22;43129;52.628;10.098;2024-01-11T13:27:09;-2.70;99.90
57282;DHT22;43129;52.628;10.098;2024-01-11T13:29:35;-2.60;99.90
57282;DHT22;43129;52.628;10.098;2024-01-11T13:32:03;-2.60;99.90
57282;DHT22;43129;52.628;10.098;2024-01-11T13:34:29;-2.60;99.90
57282;DHT22;43129;52.628;10.098;2024-01-11T13:36:55;-2.50;99.90
57282;DHT22;43129;52.628;10.098;2024-01-11T13:39:20;-2.50;99.90
57282;DHT22;43129;52.628;10.098;2024-01-11T13:41:46;-2.50;99.90
57282;DHT22;43129;52.628;10.098;2024-01-11T13:44:15;-2.50;99.90
57282;DHT22;43129;52.628;10.098;2024-01-11T13:46:42;-2.50;99.90
57282;DHT22;43129;52.628;10.098;2024-01-11T13:49:09;-2.40;99.90
57282;DHT22;43129;52.628;10.098;2024-01-11T13:51:35;-2.40;99.90
57282;DHT22;43129;52.628;10.098;2024-01-11T13:54:03;-2.40;99.90
57282;DHT22;43129;52.628;10.098;2024-01-11T13:56:30;-2.40;99.90
57282;DHT22;43129;52.628;10.098;2024-01-11T13:58:59;-2.30;99.90
57282;DHT22;43129;52.628;10.098;2024-01-11T14:01:24;-2.30;99.90
57282;DHT22;43129;52.628;10.098;2024-01-11T14:03:50;-2.20;99.90
57282;DHT22;43129;52.628;10.098;2024-01-11T14:06:18;-2.30;99.90
57282;DHT22;43129;52.628;10.098;2024-01-11T14:08:43;-2.20;99.90
57282;DHT22;43129;52.628;10.098;2024-01-11T14:11:09;-2.20;99.90
57282;DHT22;43129;52.628;10.098;2024-01-11T14:13:34;-2.20;99.90
57282;DHT22;43129;52.628;10.098;2024-01-11T14:16:00;-2.10;99.90
57282;DHT22;43129;52.628;10.098;2024-01-11T14:18:25;-2.10;99.90
57282;DHT22;43129;52.628;10.098;2024-01-11T14:20:56;-2.10;99.90
57282;DHT22;43129;52.628;10.098;2024-01-11T14:23:24;-2.10;99.90
57282;DHT22;43129;52.628;10.098;2024-01-11T14:25:49;-2.10;99.90
57282;DHT22;43129;52.628;10.098;2024-01-11T14:28:19;-2.10;99.90
57282;DHT22;43129;52.628;10.098;2024-01-11T14:30:45;-2.10;99.90
57282;DHT22;43129;52.628;10.098;2024-01-11T14:33:14;-2.10;99.90
57282;DHT22;43129;52.628;10.098;2024-01-11T14:35:41;-2.10;99.90
57282;DHT22;43129;52.628;10.098;2024-01-11T14:38:08;-2.10;99.90
57282;DHT22;43129;52.628;10.098;2024-01-11T14:40:36;-2.00;99.90
57282;DHT22;43129;52.628;10.098;2024-01-11T14:43:02;-2.10;99.90
57282;DHT22;43129;52.628;10.098;2024-01-11T14:45:30;-2.00;99.90
57282;DHT22;43129;52.628;10.098;2024-01-11T14:47:58;-2.10;99.90
57282;DHT22;43129;52.628;10.098;2024-01-11T14:50:24;-2.00;99.90
57282;DHT22;43129;52.628;10.098;2024-01-11T14:52:49;-2.00;99.90
57282;DHT22;43129;52.628;10.098;2024-01-11T14:55:15;-2.00;99.90
57282;DHT22;43129;52.628;10.098;2024-01-11T14:57:41;-1.90;99.90
57282;DHT22;43129;52.628;10.098;2024-01-11T15:00:08;-1.90;99.90
57282;DHT22;43129;52.628;10.098;2024-01-11T15:02:35;-1.80;99.90
57282;DHT22;43129;52.628;10.098;2024-01-11T15:05:04;-1.90;99.90
57282;DHT22;43129;52.628;10.098;2024-01-11T15:07:31;-1.80;99.90
57282;DHT22;43129;52.628;10.098;2024-01-11T15:09:58;-1.80;99.90
57282;DHT22;43129;52.628;10.098;2024-01-11T15:12:23;-1.80;99.90
57282;DHT22;43129;52.628;10.098;2024-01-11T15:14:51;-1.80;99.90
57282;DHT22;43129;52.628;10.098;2024-01-11T15:17:21;-1.80;99.90
57282;DHT22;43129;52.628;10.098;2024-01-11T15:19:47;-1.80;99.90
57282;DHT22;43129;52.628;10.098;2024-01-11T15:22:13;-1.90;99.90